Time;durP1;ratioP1;P1;durP2;ratioP2;P2;SDS_P1;SDS_P2;PMS_P1;PMS_P2;Temp;Humidity;BMP_temperature;BMP_pressure;BME280_temperature;BME280_humidity;BME280_pressure;Samples;Min_cycle;Max_cycle;Signal;HPM_P1;HPM_P2
2023/05/23 00:01:23;;;;;;;57.10;22.15;;;14.20;99.90;;;;;;5088511;28;20516;-84
2023/05/23 00:03:52;;;;;;;57.78;21.08;;;14.10;99.90;;;;;;5056467;28;20040;-85
2023/05/23 00:06:22;;;;;;;51.42;20.13;;;14.20;99.90;;;;;;5089075;28;20128;-84
2023/05/23 00:08:49;;;;;;;40.45;19.13;;;14.10;99.90;;;;;;5089764;28;20040;-84
2023/05/23 00:11:17;;;;;;;45.90;20.13;;;14.20;99.90;;;;;;5072757;28;20054;-84
2023/05/23 00:13:44;;;;;;;44.90;19.67;;;14.20;99.90;;;;;;5056618;28;20048;-84
2023/05/23 00:16:11;;;;;;;40.10;19.08;;;14.20;99.90;;;;;;5070823;28;20048;-84
2023/05/23 00:18:41;;;;;;;40.60;18.13;;;14.20;99.90;;;;;;5056800;28;20424;-84
2023/05/23 00:21:08;;;;;;;36.10;17.15;;;14.20;99.90;;;;;;5072431;28;20045;-84
2023/05/23 00:23:35;;;;;;;32.58;17.35;;;14.20;99.90;;;;;;5088977;28;20037;-84
2023/05/23 00:26:02;;;;;;;37.55;16.42;;;14.20;99.90;;;;;;5056269;28;20090;-84
2023/05/23 00:28:29;;;;;;;31.38;15.57;;;14.30;99.90;;;;;;5055876;28;20064;-84
2023/05/23 00:30:55;;;;;;;37.15;15.68;;;14.20;99.90;;;;;;5091927;28;20032;-84
2023/05/23 00:33:22;;;;;;;38.58;15.65;;;14.20;99.90;;;;;;5092435;28;20441;-85
2023/05/23 00:35:49;;;;;;;33.95;14.65;;;14.20;99.90;;;;;;5075987;28;20052;-85
2023/05/23 00:38:16;;;;;;;30.13;14.73;;;14.20;99.90;;;;;;5075457;28;20058;-84
2023/05/23 00:40:43;;;;;;;30.02;13.93;;;14.20;99.90;;;;;;5059566;28;20040;-84
2023/05/23 00:43:09;;;;;;;31.80;13.73;;;14.20;99.90;;;;;;5076003;28;20450;-84
2023/05/23 00:45:36;;;;;;;33.05;13.32;;;14.20;99.90;;;;;;5092039;28;20040;-85
2023/05/23 00:48:05;;;;;;;30.33;13.95;;;14.20;99.90;;;;;;5075528;28;20047;-84
2023/05/23 00:50:32;;;;;;;24.90;12.40;;;14.10;99.90;;;;;;5092102;28;20519;-85
2023/05/23 00:53:00;;;;;;;26.58;12.43;;;14.20;99.90;;;;;;5075814;28;20070;-85
2023/05/23 00:55:28;;;;;;;30.67;12.52;;;14.10;99.90;;;;;;5075339;28;20032;-84
2023/05/23 00:57:56;;;;;;;28.95;11.32;;;14.20;99.90;;;;;;5073262;28;20047;-84
2023/05/23 01:00:24;;;;;;;24.48;11.07;;;14.20;99.90;;;;;;5071047;28;20494;-85
2023/05/23 01:02:52;;;;;;;30.05;10.73;;;14.20;99.90;;;;;;5055738;28;20045;-86
2023/05/23 01:05:21;;;;;;;24.95;10.02;;;14.20;99.90;;;;;;5055459;28;20049;-85
2023/05/23 01:07:49;;;;;;;27.60;9.63;;;14.20;99.90;;;;;;5055717;28;20048;-84
2023/05/23 01:10:20;;;;;;;21.00;10.30;;;14.30;99.90;;;;;;5072795;28;20048;-85
2023/05/23 01:13:10;;;;;;;24.27;10.82;;;14.30;99.90;;;;;;5091936;28;20048;-85
2023/05/23 01:15:44;;;;;;;25.42;11.65;;;14.20;99.90;;;;;;5083693;28;20044;-84
2023/05/23 01:18:25;;;;;;;20.60;10.48;;;14.20;99.90;;;;;;5071580;28;20044;-84
2023/05/23 01:20:55;;;;;;;19.65;11.10;;;14.20;99.90;;;;;;5071481;28;20519;-85
2023/05/23 01:23:51;;;;;;;21.70;11.07;;;14.20;99.90;;;;;;5071447;28;20045;-83
2023/05/23 01:26:26;;;;;;;20.80;10.68;;;14.20;99.90;;;;;;5098491;28;20454;-84
2023/05/23 01:28:57;;;;;;;21.88;11.60;;;14.20;99.90;;;;;;5076465;28;20036;-85
2023/05/23 01:31:25;;;;;;;25.67;11.20;;;14.20;99.90;;;;;;5071180;28;20562;-84
2023/05/23 01:33:54;;;;;;;24.38;11.40;;;14.20;99.90;;;;;;5054900;28;20485;-84
2023/05/23 01:36:21;;;;;;;20.58;12.07;;;14.20;99.90;;;;;;5071504;28;20389;-84
2023/05/23 01:38:47;;;;;;;21.52;12.27;;;14.10;99.90;;;;;;5095203;28;20062;-84
2023/05/23 01:41:14;;;;;;;22.02;11.40;;;14.10;99.90;;;;;;5058210;28;20032;-84
2023/05/23 01:43:41;;;;;;;22.30;11.15;;;14.10;99.90;;;;;;5058088;28;20817;-84
2023/05/23 01:46:08;;;;;;;20.60;10.55;;;14.20;99.90;;;;;;5090905;28;20253;-84
2023/05/23 01:48:36;;;;;;;21.55;10.75;;;14.10;99.90;;;;;;5037746;28;20052;-84
2023/05/23 01:51:03;;;;;;;21.98;10.88;;;14.10;99.90;;;;;;5070453;28;20037;-84
2023/05/23 01:53:30;;;;;;;18.92;10.32;;;14.10;99.90;;;;;;5054001;28;20409;-84
2023/05/23 01:56:02;;;;;;;15.05;8.88;;;14.00;99.90;;;;;;5087776;28;20056;-84
2023/05/23 01:58:30;;;;;;;16.67;8.95;;;14.00;99.90;;;;;;5086090;28;20052;-84
2023/05/23 02:00:57;;;;;;;19.67;9.30;;;14.00;99.90;;;;;;5073865;28;20063;-84
2023/05/23 02:03:24;;;;;;;15.95;8.73;;;13.90;99.90;;;;;;5090654;28;20100;-84
2023/05/23 02:05:50;;;;;;;16.00;8.70;;;13.90;99.90;;;;;;5074209;28;20129;-84
2023/05/23 02:08:17;;;;;;;15.02;8.05;;;13.90;99.90;;;;;;5090677;28;20051;-85
2023/05/23 02:10:44;;;;;;;18.08;8.07;;;13.90;99.90;;;;;;5089918;28;20040;-84
2023/05/23 02:13:10;;;;;;;15.65;8.00;;;13.80;99.90;;;;;;5073550;28;20389;-85
2023/05/23 02:15:37;;;;;;;13.70;6.85;;;13.80;99.90;;;;;;5073748;28;20090;-84
2023/05/23 02:18:05;;;;;;;14.57;7.50;;;13.70;99.90;;;;;;5073470;28;20075;-84
2023/05/23 02:20:32;;;;;;;15.55;7.45;;;13.80;99.90;;;;;;5073173;28;20451;-84
2023/05/23 02:22:58;;;;;;;15.25;6.97;;;13.80;99.90;;;;;;5057100;28;20052;-85
2023/05/23 02:25:25;;;;;;;14.57;6.88;;;13.80;99.90;;;;;;5090193;28;20044;-85
2023/05/23 02:27:52;;;;;;;13.73;6.25;;;13.70;99.90;;;;;;5090011;28;20505;-84
2023/05/23 02:30:18;;;;;;;12.23;5.93;;;13.70;99.90;;;;;;5057142;28;20048;-85
2023/05/23 02:32:45;;;;;;;17.27;7.03;;;13.70;99.90;;;;;;5089617;28;20123;-85
2023/05/23 02:35:12;;;;;;;18.88;5.63;;;13.70;99.90;;;;;;5073253;28;20041;-85
2023/05/23 02:37:39;;;;;;;16.48;6.05;;;13.70;99.90;;;;;;5089650;28;20040;-84
2023/05/23 02:40:06;;;;;;;14.30;5.85;;;13.70;99.90;;;;;;5056616;28;20492;-84
2023/05/23 02:42:33;;;;;;;12.40;5.05;;;13.70;99.90;;;;;;5088996;28;20039;-83
2023/05/23 02:45:00;;;;;;;15.32;6.38;;;13.70;99.90;;;;;;5089734;28;20040;-84
2023/05/23 02:47:27;;;;;;;14.90;6.38;;;13.70;99.90;;;;;;5089866;28;20485;-85
2023/05/23 02:49:53;;;;;;;14.13;6.07;;;13.70;99.90;;;;;;5051200;28;20037;-84
2023/05/23 02:52:20;;;;;;;16.33;6.03;;;13.60;99.90;;;;;;5036282;28;20153;-84
2023/05/23 02:54:47;;;;;;;19.33;6.65;;;13.50;99.90;;;;;;5052633;28;20079;-84
2023/05/23 02:57:14;;;;;;;11.68;5.78;;;13.50;99.90;;;;;;5052854;28;20477;-84
2023/05/23 02:59:41;;;;;;;16.88;6.43;;;13.50;99.90;;;;;;5052922;28;20029;-85
2023/05/23 03:02:07;;;;;;;16.63;6.43;;;13.40;99.90;;;;;;5036338;28;20057;-84
2023/05/23 03:04:34;;;;;;;15.85;6.18;;;13.40;99.90;;;;;;5036669;28;20480;-84
2023/05/23 03:07:02;;;;;;;15.57;6.35;;;13.40;99.90;;;;;;5036332;28;20051;-84
2023/05/23 03:09:29;;;;;;;17.73;6.72;;;13.40;99.90;;;;;;5069519;28;20045;-84
2023/05/23 03:11:56;;;;;;;16.85;6.25;;;13.40;99.90;;;;;;5052679;28;20417;-84
2023/05/23 03:14:22;;;;;;;15.45;6.18;;;13.40;99.90;;;;;;5036629;28;20421;-85
2023/05/23 03:16:49;;;;;;;16.70;5.93;;;13.40;99.90;;;;;;5052843;28;20037;-84
2023/05/23 03:19:16;;;;;;;14.38;5.65;;;13.30;99.90;;;;;;5052777;28;20037;-84
2023/05/23 03:21:43;;;;;;;15.30;5.13;;;13.30;99.90;;;;;;5052428;28;20037;-83
2023/05/23 03:24:09;;;;;;;17.02;5.60;;;13.20;99.90;;;;;;5049142;28;20046;-84
2023/05/23 03:26:36;;;;;;;12.43;4.60;;;13.20;99.90;;;;;;5056890;28;20135;-84
2023/05/23 03:29:03;;;;;;;14.10;5.13;;;13.10;99.90;;;;;;5072573;28;20040;-84
2023/05/23 03:31:29;;;;;;;12.50;4.70;;;13.10;99.90;;;;;;5055787;28;20480;-84
2023/05/23 03:33:56;;;;;;;17.00;5.30;;;13.10;99.90;;;;;;5088950;28;20045;-84
2023/05/23 03:36:24;;;;;;;13.85;5.03;;;13.10;99.90;;;;;;5072874;28;20513;-85
2023/05/23 03:38:52;;;;;;;12.25;5.07;;;13.00;99.90;;;;;;5056218;28;20045;-86
2023/05/23 03:41:18;;;;;;;14.15;4.85;;;13.00;99.90;;;;;;5072769;28;20182;-85
2023/05/23 03:43:45;;;;;;;14.93;5.00;;;13.00;99.90;;;;;;5038724;28;20123;-84
2023/05/23 03:46:12;;;;;;;9.23;3.90;;;12.90;99.90;;;;;;5036327;28;20039;-84
2023/05/23 03:48:38;;;;;;;9.68;3.90;;;12.90;99.90;;;;;;5069070;28;20099;-84
2023/05/23 03:51:05;;;;;;;10.82;4.20;;;12.90;99.90;;;;;;5036175;28;20045;-85
2023/05/23 03:53:32;;;;;;;14.98;4.38;;;12.80;99.90;;;;;;5052442;28;20071;-84
2023/05/23 03:55:58;;;;;;;16.02;4.80;;;12.80;99.90;;;;;;5035284;28;20055;-84
2023/05/23 03:58:25;;;;;;;14.05;5.38;;;12.80;99.90;;;;;;5051929;28;20037;-84
2023/05/23 04:00:53;;;;;;;15.60;4.57;;;12.80;99.90;;;;;;5051549;28;20067;-84
2023/05/23 04:03:19;;;;;;;9.43;4.05;;;12.70;99.90;;;;;;5063361;28;20044;-84
2023/05/23 04:05:46;;;;;;;14.60;4.95;;;12.60;99.90;;;;;;5058652;28;20043;-84
2023/05/23 04:08:13;;;;;;;18.48;4.65;;;12.60;99.90;;;;;;5092772;28;20036;-84
2023/05/23 04:10:40;;;;;;;11.98;4.25;;;12.50;99.90;;;;;;5092198;28;20128;-84
2023/05/23 04:13:08;;;;;;;14.35;5.30;;;12.50;99.90;;;;;;5069105;28;20037;-84
2023/05/23 04:15:35;;;;;;;14.07;4.80;;;12.50;99.90;;;;;;5039713;28;20037;-84
2023/05/23 04:18:02;;;;;;;16.60;4.63;;;12.50;99.90;;;;;;5071867;28;20397;-84
2023/05/23 04:20:29;;;;;;;14.98;4.57;;;12.50;99.90;;;;;;5055499;28;20520;-84
2023/05/23 04:22:56;;;;;;;15.07;5.00;;;12.40;99.90;;;;;;5055005;28;20083;-84
2023/05/23 04:25:23;;;;;;;14.65;4.78;;;12.50;99.90;;;;;;5062050;28;20045;-84
2023/05/23 04:27:49;;;;;;;14.55;4.20;;;12.40;99.90;;;;;;5092242;28;20044;-84
2023/05/23 04:30:17;;;;;;;16.00;5.25;;;12.40;99.90;;;;;;5075783;28;20036;-84
2023/05/23 04:32:43;;;;;;;14.82;4.90;;;12.40;99.90;;;;;;5092374;28;20515;-84
2023/05/23 04:35:10;;;;;;;11.43;4.53;;;12.40;99.90;;;;;;5091822;28;20036;-85
2023/05/23 04:37:38;;;;;;;18.05;4.50;;;12.40;99.90;;;;;;5059101;28;20037;-85
2023/05/23 04:40:06;;;;;;;13.57;4.68;;;12.40;99.90;;;;;;5059242;28;20033;-84
2023/05/23 04:42:32;;;;;;;11.00;4.20;;;12.40;99.90;;;;;;5059644;28;20040;-85
2023/05/23 04:45:00;;;;;;;14.82;5.07;;;12.50;99.90;;;;;;5058550;28;20548;-84
2023/05/23 04:47:28;;;;;;;14.77;4.88;;;12.50;99.90;;;;;;5059490;28;20033;-84
2023/05/23 04:49:56;;;;;;;11.85;3.80;;;12.50;99.90;;;;;;5071496;28;20041;-84
2023/05/23 04:52:22;;;;;;;15.35;3.83;;;12.50;99.90;;;;;;5039313;28;20037;-84
2023/05/23 04:54:49;;;;;;;11.38;3.38;;;12.40;99.90;;;;;;5039235;28;20484;-84
2023/05/23 04:57:16;;;;;;;19.88;3.85;;;12.40;99.90;;;;;;5039279;28;20041;-84
2023/05/23 04:59:43;;;;;;;13.95;3.28;;;12.40;99.90;;;;;;5071623;28;20059;-84
2023/05/23 05:02:10;;;;;;;11.35;3.67;;;12.40;99.90;;;;;;5038494;28;20102;-84
2023/05/23 05:04:36;;;;;;;12.55;3.53;;;12.40;99.90;;;;;;5055341;28;20047;-84
2023/05/23 05:07:03;;;;;;;13.90;3.40;;;12.40;99.90;;;;;;5038579;28;20049;-84
2023/05/23 05:09:30;;;;;;;14.20;3.83;;;12.40;99.90;;;;;;5038644;28;20045;-84
2023/05/23 05:11:58;;;;;;;14.57;3.63;;;12.40;99.90;;;;;;5071049;28;20041;-84
2023/05/23 05:14:26;;;;;;;17.10;4.15;;;12.40;99.90;;;;;;5038636;28;20040;-84
2023/05/23 05:16:53;;;;;;;10.90;3.50;;;12.40;99.90;;;;;;5070782;28;20037;-85
2023/05/23 05:19:20;;;;;;;11.32;3.25;;;12.40;99.90;;;;;;5071441;28;20093;-84
2023/05/23 05:21:47;;;;;;;13.27;3.30;;;12.40;99.90;;;;;;5038409;28;20448;-85
2023/05/23 05:24:14;;;;;;;11.73;3.13;;;12.40;99.90;;;;;;5054585;28;20126;-84
2023/05/23 05:26:41;;;;;;;10.38;2.70;;;12.40;99.90;;;;;;5052397;28;20078;-84
2023/05/23 05:29:08;;;;;;;16.58;3.67;;;12.40;99.90;;;;;;5091172;28;20052;-84
2023/05/23 05:31:36;;;;;;;8.80;3.35;;;12.40;99.90;;;;;;5075114;28;20470;-84
2023/05/23 05:34:02;;;;;;;10.23;2.65;;;12.40;99.90;;;;;;5058213;28;20037;-84
2023/05/23 05:36:30;;;;;;;17.23;3.13;;;12.40;99.90;;;;;;5091033;28;20078;-84
2023/05/23 05:38:57;;;;;;;19.17;3.28;;;12.30;99.90;;;;;;5080193;28;20127;-83
2023/05/23 05:41:25;;;;;;;11.68;3.33;;;12.30;99.90;;;;;;5077635;28;20500;-84
2023/05/23 05:43:52;;;;;;;12.73;3.88;;;12.30;99.90;;;;;;5058518;28;20123;-84
2023/05/23 05:46:18;;;;;;;13.43;4.20;;;12.20;99.90;;;;;;5074333;28;20136;-85
2023/05/23 05:48:46;;;;;;;17.05;4.28;;;12.10;99.90;;;;;;5050058;28;20076;-85
2023/05/23 05:51:12;;;;;;;19.25;3.92;;;12.10;99.90;;;;;;5037990;28;20083;-85
2023/05/23 05:53:39;;;;;;;13.07;4.00;;;12.00;99.90;;;;;;5054790;28;20077;-84
2023/05/23 05:56:07;;;;;;;15.57;4.35;;;11.90;99.90;;;;;;5072248;28;20048;-85
2023/05/23 05:58:34;;;;;;;9.73;3.63;;;11.90;99.90;;;;;;5091609;28;20043;-85
2023/05/23 06:01:01;;;;;;;13.57;3.78;;;11.90;99.90;;;;;;5057840;28;20394;-84
2023/05/23 06:03:28;;;;;;;14.93;4.78;;;11.90;99.90;;;;;;5090550;28;20496;-84
2023/05/23 06:05:54;;;;;;;20.75;4.55;;;11.90;99.90;;;;;;5074285;28;20044;-85
2023/05/23 06:08:21;;;;;;;14.90;4.40;;;11.90;99.90;;;;;;5075637;28;20473;-85
2023/05/23 06:10:48;;;;;;;13.13;4.68;;;11.90;99.90;;;;;;5037844;28;20519;-84
2023/05/23 06:13:15;;;;;;;16.08;4.60;;;11.80;99.90;;;;;;5053715;28;20087;-85
2023/05/23 06:15:42;;;;;;;13.15;4.38;;;11.80;99.90;;;;;;5038127;28;20037;-83
2023/05/23 06:18:08;;;;;;;15.00;3.90;;;11.80;99.90;;;;;;5055587;28;20033;-85
2023/05/23 06:20:35;;;;;;;9.43;3.78;;;11.80;99.90;;;;;;5074096;28;20082;-85
2023/05/23 06:23:04;;;;;;;11.57;3.72;;;11.70;99.90;;;;;;5074238;28;20070;-85
2023/05/23 06:25:31;;;;;;;14.20;3.97;;;11.70;99.90;;;;;;5058820;28;20059;-86
2023/05/23 06:27:58;;;;;;;15.95;4.03;;;11.70;99.90;;;;;;5068845;28;20045;-86
2023/05/23 06:30:25;;;;;;;16.55;4.47;;;11.70;99.90;;;;;;5041445;28;20052;-86
2023/05/23 06:32:51;;;;;;;12.85;4.38;;;11.70;99.90;;;;;;5050740;28;20429;-86
2023/05/23 06:35:18;;;;;;;18.05;4.18;;;11.70;99.90;;;;;;5058243;28;20039;-86
2023/05/23 06:37:45;;;;;;;13.07;3.78;;;11.70;99.90;;;;;;5068482;28;20131;-87
2023/05/23 06:40:13;;;;;;;11.57;3.28;;;11.80;99.90;;;;;;5040629;28;20041;-86
2023/05/23 06:42:40;;;;;;;13.38;2.92;;;11.70;99.90;;;;;;5073854;28;20040;-86
2023/05/23 06:45:08;;;;;;;14.85;3.95;;;11.80;99.90;;;;;;5060409;28;20044;-86
2023/05/23 06:47:34;;;;;;;11.02;3.17;;;11.80;99.90;;;;;;5090321;28;20499;-86
2023/05/23 06:50:02;;;;;;;8.30;2.65;;;11.70;99.90;;;;;;5059153;28;20132;-86
2023/05/23 06:52:28;;;;;;;11.07;3.00;;;11.70;99.90;;;;;;5049300;28;20045;-84
2023/05/23 06:54:55;;;;;;;8.45;2.70;;;11.70;99.90;;;;;;5057651;28;20516;-87
2023/05/23 06:57:22;;;;;;;10.57;3.03;;;11.70;99.90;;;;;;5047507;28;20048;-86
2023/05/23 06:59:49;;;;;;;12.57;3.38;;;11.70;99.90;;;;;;5046982;28;20404;-86
2023/05/23 07:02:15;;;;;;;11.98;3.28;;;11.70;99.90;;;;;;5053666;28;20107;-86
2023/05/23 07:04:42;;;;;;;12.10;3.00;;;11.60;99.90;;;;;;5037957;28;20133;-86
2023/05/23 07:07:09;;;;;;;13.30;2.70;;;11.60;99.90;;;;;;5054225;28;20056;-85
2023/05/23 07:09:37;;;;;;;9.40;3.00;;;11.50;99.90;;;;;;5038250;28;20037;-87
2023/05/23 07:12:05;;;;;;;13.77;2.78;;;11.70;99.90;;;;;;5071018;28;20051;-87
2023/05/23 07:14:34;;;;;;;14.43;3.00;;;11.70;99.90;;;;;;5069997;28;20044;-87
2023/05/23 07:17:01;;;;;;;16.80;3.20;;;11.70;99.90;;;;;;5054823;28;20037;-87
2023/05/23 07:19:27;;;;;;;18.85;2.95;;;11.80;99.90;;;;;;5072248;28;20090;-86
2023/05/23 07:21:54;;;;;;;17.45;3.85;;;11.80;99.90;;;;;;5074272;28;20515;-85
2023/05/23 07:24:21;;;;;;;17.42;3.28;;;11.80;99.90;;;;;;5073744;28;20060;-86
2023/05/23 07:26:47;;;;;;;15.18;2.97;;;11.80;99.90;;;;;;5067893;28;20075;-85
2023/05/23 07:29:14;;;;;;;14.77;3.13;;;11.80;99.90;;;;;;5094997;28;20047;-85
2023/05/23 07:31:41;;;;;;;18.95;2.65;;;11.90;99.90;;;;;;5089954;28;20051;-85
2023/05/23 07:34:07;;;;;;;14.45;3.70;;;11.90;99.90;;;;;;5073471;28;20044;-85
2023/05/23 07:36:36;;;;;;;19.27;3.08;;;11.90;99.90;;;;;;5089251;28;20033;-85
2023/05/23 07:39:03;;;;;;;12.13;3.00;;;12.00;99.90;;;;;;5057270;28;20532;-85
2023/05/23 07:41:30;;;;;;;17.40;3.22;;;12.00;99.90;;;;;;5093259;28;20044;-86
2023/05/23 07:43:56;;;;;;;22.10;4.00;;;11.90;99.90;;;;;;5077199;28;20041;-86
2023/05/23 07:46:23;;;;;;;10.73;3.20;;;11.90;99.90;;;;;;5094395;28;20036;-87
2023/05/23 07:48:50;;;;;;;13.93;3.22;;;11.90;99.90;;;;;;5051839;28;20033;-87
2023/05/23 07:51:20;;;;;;;17.73;3.10;;;11.90;99.90;;;;;;5057896;28;20127;-86
2023/05/23 07:53:46;;;;;;;19.95;3.15;;;11.90;99.90;;;;;;5042378;28;20041;-86
2023/05/23 07:56:13;;;;;;;18.75;2.67;;;11.90;99.90;;;;;;5069078;28;20032;-86
2023/05/23 07:58:40;;;;;;;13.52;2.88;;;12.00;99.90;;;;;;5077183;28;20091;-87
2023/05/23 08:01:06;;;;;;;16.05;2.72;;;12.00;99.90;;;;;;5077975;28;20048;-86
2023/05/23 08:03:33;;;;;;;15.65;3.58;;;12.10;99.90;;;;;;5073060;28;20041;-87
2023/05/23 08:06:00;;;;;;;15.55;3.80;;;12.10;99.90;;;;;;5073478;28;20041;-86
2023/05/23 08:08:26;;;;;;;19.77;2.85;;;12.20;99.90;;;;;;5040550;28;20040;-86
2023/05/23 08:10:53;;;;;;;15.05;3.03;;;12.40;99.90;;;;;;5040678;28;20044;-86
2023/05/23 08:13:20;;;;;;;13.15;2.83;;;12.40;99.90;;;;;;5084759;28;20077;-86
2023/05/23 08:15:46;;;;;;;17.00;3.53;;;12.50;99.90;;;;;;5060984;28;20070;-86
2023/05/23 08:18:13;;;;;;;19.65;3.75;;;12.50;99.90;;;;;;5061029;28;20541;-86
2023/05/23 08:20:40;;;;;;;15.60;3.03;;;12.40;99.90;;;;;;5046329;28;20055;-86
2023/05/23 08:23:06;;;;;;;17.38;3.15;;;12.50;99.90;;;;;;5072382;28;20041;-85
2023/05/23 08:25:33;;;;;;;18.83;3.55;;;12.50;99.90;;;;;;5093129;28;20076;-86
2023/05/23 08:28:00;;;;;;;13.73;3.17;;;12.50;99.90;;;;;;5109916;28;20036;-86
2023/05/23 08:30:28;;;;;;;14.98;2.88;;;12.60;99.90;;;;;;5066890;28;20172;-87
2023/05/23 08:32:55;;;;;;;9.30;2.60;;;12.60;99.90;;;;;;5090326;28;20045;-86
2023/05/23 08:35:23;;;;;;;15.98;2.85;;;12.60;99.90;;;;;;5072705;28;20041;-87
2023/05/23 08:37:50;;;;;;;15.10;2.97;;;12.50;99.90;;;;;;5073557;28;20044;-86
2023/05/23 08:40:20;;;;;;;8.45;2.45;;;12.50;99.90;;;;;;5058941;28;20048;-87
2023/05/23 08:42:50;;;;;;;14.45;2.95;;;12.50;99.90;;;;;;5040854;28;20059;-86
2023/05/23 08:45:17;;;;;;;16.40;3.33;;;12.60;99.90;;;;;;5057276;28;20413;-86
2023/05/23 08:47:45;;;;;;;12.55;3.20;;;12.70;99.90;;;;;;5056570;28;20083;-86
2023/05/23 08:50:13;;;;;;;10.57;2.65;;;12.80;99.90;;;;;;5040322;28;21082;-86
2023/05/23 08:52:52;;;;;;;16.67;3.92;;;13.00;99.90;;;;;;5066597;28;20064;-86
2023/05/23 08:55:20;;;;;;;19.98;3.13;;;13.20;99.90;;;;;;5092626;28;20102;-86
2023/05/23 08:57:47;;;;;;;16.20;2.67;;;13.30;99.90;;;;;;5043585;28;20039;-86
2023/05/23 09:00:15;;;;;;;14.20;3.13;;;13.40;99.90;;;;;;5076299;28;20036;-86
2023/05/23 09:02:43;;;;;;;9.15;2.75;;;13.40;99.90;;;;;;5092559;28;20040;-86
2023/05/23 09:05:11;;;;;;;12.02;3.30;;;13.40;99.90;;;;;;5091144;28;20045;-86
2023/05/23 09:07:38;;;;;;;14.40;3.50;;;13.50;99.90;;;;;;5092950;28;20055;-86
2023/05/23 09:10:07;;;;;;;14.82;3.33;;;13.60;99.90;;;;;;5093297;28;20033;-87
2023/05/23 09:12:37;;;;;;;14.27;3.25;;;13.60;99.90;;;;;;5075418;28;20413;-88
2023/05/23 09:15:06;;;;;;;17.27;3.40;;;13.40;99.90;;;;;;5094659;28;20051;-87
2023/05/23 09:17:33;;;;;;;18.35;2.80;;;13.30;99.90;;;;;;5068436;28;20048;-87
2023/05/23 09:20:01;;;;;;;15.73;3.22;;;13.30;99.90;;;;;;5039873;28;20043;-87
2023/05/23 09:22:28;;;;;;;14.52;3.33;;;13.30;99.90;;;;;;5064022;28;20039;-87
2023/05/23 09:24:56;;;;;;;16.20;3.28;;;13.30;99.90;;;;;;5103291;28;20036;-87
2023/05/23 09:27:23;;;;;;;15.40;2.88;;;13.30;99.90;;;;;;5091276;28;20044;-87
2023/05/23 09:29:50;;;;;;;13.05;3.38;;;13.40;99.90;;;;;;5063636;28;20505;-86
2023/05/23 09:32:17;;;;;;;9.93;2.53;;;13.40;99.90;;;;;;5088687;28;20110;-86
2023/05/23 09:34:55;;;;;;;11.40;2.67;;;13.40;99.90;;;;;;5077073;28;20033;-87
2023/05/23 09:37:49;;;;;;;14.02;3.20;;;13.30;99.90;;;;;;5078012;28;20166;-86
2023/05/23 09:40:15;;;;;;;13.10;3.03;;;13.30;99.90;;;;;;5054449;28;20511;-87
2023/05/23 09:42:44;;;;;;;10.55;3.13;;;13.30;99.90;;;;;;5087570;28;20517;-88
2023/05/23 09:45:12;;;;;;;15.70;3.25;;;13.20;99.90;;;;;;5059476;28;20036;-87
2023/05/23 09:47:45;;;;;;;13.60;2.83;;;13.30;99.90;;;;;;5108437;28;20045;-86
2023/05/23 09:50:12;;;;;;;11.60;2.85;;;13.30;99.90;;;;;;5076437;28;20044;-87
2023/05/23 09:52:38;;;;;;;14.35;2.90;;;13.40;99.90;;;;;;5075034;28;20573;-86
2023/05/23 09:55:06;;;;;;;14.90;3.47;;;13.40;99.90;;;;;;5075159;28;20464;-86
2023/05/23 09:57:41;;;;;;;17.40;3.55;;;13.40;99.90;;;;;;5074476;28;20547;-86
2023/05/23 10:00:12;;;;;;;13.47;2.80;;;13.30;99.90;;;;;;5058862;28;20115;-86
2023/05/23 10:03:00;;;;;;;12.07;2.30;;;13.40;99.90;;;;;;5091253;28;20578;-86
2023/05/23 10:05:44;;;;;;;18.80;3.03;;;13.50;99.90;;;;;;5090894;28;20484;-86
2023/05/23 10:08:13;;;;;;;15.65;2.85;;;13.50;99.90;;;;;;5107420;28;20456;-85
2023/05/23 10:10:55;;;;;;;12.18;3.13;;;13.50;99.90;;;;;;5107520;28;20510;-86
2023/05/23 10:13:26;;;;;;;15.65;2.80;;;13.50;99.90;;;;;;5072884;28;20047;-84
2023/05/23 10:16:08;;;;;;;14.35;2.97;;;13.60;99.90;;;;;;5070855;28;20725;-86
2023/05/23 10:18:44;;;;;;;11.20;3.03;;;13.80;99.90;;;;;;5103785;28;20489;-85
2023/05/23 10:21:14;;;;;;;15.02;2.97;;;14.20;99.90;;;;;;5087529;28;20060;-86
2023/05/23 10:23:43;;;;;;;9.85;2.38;;;14.20;99.90;;;;;;5100251;28;20041;-86
2023/05/23 10:26:10;;;;;;;12.40;2.53;;;14.20;99.90;;;;;;5074862;28;20040;-86
2023/05/23 10:28:39;;;;;;;20.17;3.13;;;14.20;99.90;;;;;;5074603;28;20051;-86
2023/05/23 10:31:06;;;;;;;12.40;2.83;;;14.20;99.90;;;;;;5090863;28;20040;-86
2023/05/23 10:33:40;;;;;;;9.85;2.40;;;14.20;99.90;;;;;;5063856;28;20147;-85
2023/05/23 10:36:21;;;;;;;16.08;2.65;;;14.20;99.90;;;;;;5072370;28;20068;-87
2023/05/23 10:39:15;;;;;;;13.77;2.65;;;14.00;99.90;;;;;;5090782;28;20036;-87
2023/05/23 10:41:54;;;;;;;12.35;3.33;;;14.00;99.90;;;;;;5091021;28;20044;-87
2023/05/23 10:44:29;;;;;;;16.73;3.10;;;14.00;99.90;;;;;;5107846;28;20413;-86
2023/05/23 10:47:02;;;;;;;17.10;2.95;;;14.00;99.90;;;;;;5099484;28;20043;-87
2023/05/23 10:49:45;;;;;;;9.75;2.53;;;14.10;99.90;;;;;;5071066;28;20124;-85
2023/05/23 10:52:15;;;;;;;11.20;2.70;;;14.10;99.90;;;;;;5071099;28;20040;-86
2023/05/23 10:54:43;;;;;;;15.75;3.13;;;14.20;99.90;;;;;;5070827;28;20072;-87
2023/05/23 10:57:15;;;;;;;13.98;2.50;;;14.20;99.90;;;;;;5071434;28;20076;-88
2023/05/23 10:59:42;;;;;;;10.25;2.67;;;14.30;99.90;;;;;;5054928;28;20037;-86
2023/05/23 11:02:15;;;;;;;12.77;3.40;;;14.40;99.90;;;;;;5038475;28;20442;-87
2023/05/23 11:04:43;;;;;;;15.90;2.72;;;14.20;99.90;;;;;;5080919;28;20045;-86
2023/05/23 11:07:32;;;;;;;16.95;2.60;;;14.20;99.90;;;;;;5074861;28;20124;-87
2023/05/23 11:10:04;;;;;;;11.13;2.42;;;14.10;99.90;;;;;;5074725;28;20048;-86
2023/05/23 11:12:41;;;;;;;12.27;2.40;;;14.20;99.90;;;;;;5074978;28;20036;-87
2023/05/23 11:15:44;;;;;;;9.07;1.98;;;14.20;99.90;;;;;;5078776;28;20455;-87
2023/05/23 11:18:29;;;;;;;10.43;2.30;;;14.10;99.90;;;;;;5090197;28;20040;-86
2023/05/23 11:20:58;;;;;;;11.65;2.53;;;14.10;99.90;;;;;;5096225;28;20099;-86
2023/05/23 11:23:39;;;;;;;9.98;2.00;;;14.10;99.90;;;;;;5076112;28;20079;-87
2023/05/23 11:26:30;;;;;;;10.52;2.30;;;14.50;99.90;;;;;;5094422;28;20048;-86
2023/05/23 11:28:58;;;;;;;13.43;2.38;;;14.50;99.90;;;;;;5090251;28;20040;-86
2023/05/23 11:31:25;;;;;;;12.68;2.55;;;14.50;99.90;;;;;;5074206;28;20409;-87
2023/05/23 11:33:52;;;;;;;15.90;2.90;;;14.60;99.90;;;;;;5073835;28;20044;-86
2023/05/23 11:36:22;;;;;;;9.45;2.10;;;14.60;99.90;;;;;;5085925;28;20045;-87
2023/05/23 11:38:51;;;;;;;12.13;2.85;;;14.50;99.90;;;;;;5082320;28;20390;-88
2023/05/23 11:41:18;;;;;;;15.40;2.53;;;14.40;99.90;;;;;;5087488;28;20037;-87
2023/05/23 11:43:51;;;;;;;14.07;2.70;;;14.40;99.90;;;;;;5086829;28;20044;-87
2023/05/23 11:46:18;;;;;;;15.93;2.85;;;14.20;99.90;;;;;;5069658;28;20090;-87
2023/05/23 11:48:48;;;;;;;14.45;2.88;;;14.20;99.90;;;;;;5053753;28;20076;-88
2023/05/23 11:51:16;;;;;;;14.98;2.70;;;14.10;99.90;;;;;;5054243;28;20041;-88
2023/05/23 11:53:42;;;;;;;8.85;2.45;;;14.00;99.90;;;;;;5066753;28;20045;-87
2023/05/23 11:56:09;;;;;;;11.50;2.30;;;14.00;99.90;;;;;;5073809;28;20041;-88
2023/05/23 11:58:38;;;;;;;14.27;2.97;;;14.00;99.90;;;;;;5090565;28;20599;-87
2023/05/23 12:01:07;;;;;;;11.95;2.92;;;14.20;99.90;;;;;;5073612;28;20493;-89
2023/05/23 12:03:54;;;;;;;15.70;2.47;;;14.30;99.90;;;;;;5086858;28;20102;-88
2023/05/23 12:06:23;;;;;;;10.48;2.05;;;14.30;99.90;;;;;;5070370;28;20060;-88
2023/05/23 12:08:53;;;;;;;14.05;2.42;;;14.20;99.90;;;;;;5053625;28;20041;-88
2023/05/23 12:11:22;;;;;;;15.30;2.38;;;14.30;99.90;;;;;;5038308;28;20045;-88
2023/05/23 12:13:52;;;;;;;8.07;1.88;;;14.50;99.90;;;;;;5053799;28;20041;-89
2023/05/23 12:16:20;;;;;;;9.77;2.10;;;14.70;99.90;;;;;;5054038;28;20854;-90
2023/05/23 12:18:47;;;;;;;10.60;2.20;;;14.70;99.90;;;;;;5054738;28;20029;-89
2023/05/23 12:21:13;;;;;;;11.25;2.20;;;14.70;99.90;;;;;;5070163;28;20447;-87
2023/05/23 12:23:41;;;;;;;13.52;2.78;;;14.40;99.90;;;;;;5069861;28;20080;-87
2023/05/23 12:26:09;;;;;;;11.25;2.55;;;14.30;99.90;;;;;;5071351;28;20099;-86
2023/05/23 12:28:46;;;;;;;14.40;2.88;;;14.20;99.90;;;;;;5072783;28;20107;-86
2023/05/23 12:31:15;;;;;;;12.30;2.53;;;14.20;99.90;;;;;;5073617;28;20040;-89
2023/05/23 12:33:45;;;;;;;15.60;2.72;;;14.20;99.90;;;;;;5098376;28;20460;-88
2023/05/23 12:36:12;;;;;;;10.13;2.30;;;14.30;99.90;;;;;;5093162;28;20055;-87
2023/05/23 12:38:39;;;;;;;10.80;2.78;;;14.30;99.90;;;;;;5060115;28;20041;-86
2023/05/23 12:41:10;;;;;;;14.15;2.88;;;14.20;99.90;;;;;;5109283;28;20036;-86
2023/05/23 12:43:48;;;;;;;12.38;2.40;;;14.10;99.90;;;;;;5077197;28;20045;-85